ARG1569 SAME-SACO
Flight info
| Callsign | ARG1569 |
|---|---|
| Flight time | 1h 13m |
| Altitude | FL230 |
| Route | SALB2C SALBO A307 ALDEX |
| Aircraft | B738/M-SDE2E3FGHIRWXY/LB1 |
Departure
| Time | 2026-05-07 15:22 |
|---|---|
| Airport | Governor Francisco Gabrielli International Airport (SAME) |
Arrival
| Time | 2026-05-07 16:36 |
|---|---|
| Airport | Ingeniero Aeronáutico Ambrosio L.V. Taravella International Airport (SACO) |
| Time | Latitude | Longitude | Altitude | Speed | Heading |
|---|---|---|---|---|---|
| 2026-05-07 14:38 | -32.82804 | -68.79771 | 2324 ft | 0 kts | 269° |
| 2026-05-07 15:10 | -32.82804 | -68.79761 | 2324 ft | 2 kts | 269° |
| 2026-05-07 15:10 | -32.82803 | -68.79743 | 2324 ft | 2 kts | 269° |
| 2026-05-07 15:10 | -32.82803 | -68.79732 | 2324 ft | 2 kts | 269° |
| 2026-05-07 15:11 | -32.82798 | -68.79715 | 2324 ft | 2 kts | 226° |
| 2026-05-07 15:11 | -32.82785 | -68.79706 | 2324 ft | 2 kts | 192° |
| 2026-05-07 15:11 | -32.82778 | -68.79705 | 2324 ft | 1 kts | 175° |
| 2026-05-07 15:11 | -32.82774 | -68.79705 | 2323 ft | 0 kts | 180° |
| 2026-05-07 15:15 | -32.82775 | -68.79705 | 2323 ft | 1 kts | 180° |
| 2026-05-07 15:15 | -32.82794 | -68.79706 | 2324 ft | 3 kts | 181° |
| 2026-05-07 15:15 | -32.82814 | -68.79706 | 2324 ft | 3 kts | 181° |
| 2026-05-07 15:15 | -32.82833 | -68.79707 | 2325 ft | 3 kts | 181° |
| 2026-05-07 15:16 | -32.82874 | -68.79708 | 2325 ft | 5 kts | 181° |
| 2026-05-07 15:16 | -32.82900 | -68.79709 | 2325 ft | 6 kts | 181° |
| 2026-05-07 15:16 | -32.82930 | -68.79680 | 2325 ft | 7 kts | 103° |
| 2026-05-07 15:16 | -32.82934 | -68.79624 | 2325 ft | 7 kts | 110° |
| 2026-05-07 15:17 | -32.82969 | -68.79581 | 2325 ft | 8 kts | 140° |
| 2026-05-07 15:17 | -32.83011 | -68.79540 | 2325 ft | 8 kts | 141° |
| 2026-05-07 15:17 | -32.83054 | -68.79509 | 2326 ft | 7 kts | 167° |
| 2026-05-07 15:17 | -32.83114 | -68.79507 | 2327 ft | 6 kts | 180° |
| 2026-05-07 15:18 | -32.83143 | -68.79507 | 2327 ft | 6 kts | 180° |
| 2026-05-07 15:18 | -32.83189 | -68.79508 | 2328 ft | 7 kts | 181° |
| 2026-05-07 15:18 | -32.83247 | -68.79510 | 2328 ft | 9 kts | 181° |
| 2026-05-07 15:18 | -32.83315 | -68.79511 | 2328 ft | 11 kts | 180° |
| 2026-05-07 15:19 | -32.83396 | -68.79512 | 2328 ft | 12 kts | 180° |
| 2026-05-07 15:19 | -32.83523 | -68.79513 | 2328 ft | 15 kts | 181° |
| 2026-05-07 15:19 | -32.83593 | -68.79514 | 2328 ft | 16 kts | 181° |
| 2026-05-07 15:19 | -32.83708 | -68.79517 | 2328 ft | 17 kts | 181° |
| 2026-05-07 15:20 | -32.83877 | -68.79517 | 2328 ft | 18 kts | 180° |
| 2026-05-07 15:20 | -32.83962 | -68.79518 | 2328 ft | 18 kts | 181° |
| 2026-05-07 15:20 | -32.84078 | -68.79486 | 2328 ft | 17 kts | 156° |
| 2026-05-07 15:20 | -32.84188 | -68.79441 | 2327 ft | 17 kts | 162° |
| 2026-05-07 15:21 | -32.84292 | -68.79380 | 2326 ft | 17 kts | 148° |
| 2026-05-07 15:21 | -32.84347 | -68.79331 | 2325 ft | 6 kts | 121° |
| 2026-05-07 15:21 | -32.84340 | -68.79305 | 2325 ft | 3 kts | 6° |
| 2026-05-07 15:21 | -32.84306 | -68.79302 | 2325 ft | 18 kts | 2° |
| 2026-05-07 15:22 | -32.83913 | -68.79299 | 2328 ft | 93 kts | 1° |
| 2026-05-07 15:22 | -32.83034 | -68.79283 | 2328 ft | 157 kts | 0° |
| 2026-05-07 15:22 | -32.81828 | -68.79257 | 2705 ft | 181 kts | 1° |
| 2026-05-07 15:22 | -32.80553 | -68.79204 | 3397 ft | 191 kts | 2° |
| 2026-05-07 15:23 | -32.79178 | -68.79145 | 3932 ft | 207 kts | 3° |
| 2026-05-07 15:23 | -32.77677 | -68.79054 | 4360 ft | 224 kts | 5° |
| 2026-05-07 15:23 | -32.76130 | -68.78899 | 5126 ft | 224 kts | 9° |
| 2026-05-07 15:23 | -32.74658 | -68.78484 | 6074 ft | 213 kts | 24° |
| 2026-05-07 15:24 | -32.73440 | -68.77622 | 6919 ft | 206 kts | 42° |
| 2026-05-07 15:24 | -32.72284 | -68.75637 | 7194 ft | 239 kts | 69° |
| 2026-05-07 15:24 | -32.71980 | -68.73609 | 7493 ft | 262 kts | 89° |
| 2026-05-07 15:24 | -32.72042 | -68.72159 | 7873 ft | 269 kts | 93° |
| 2026-05-07 15:25 | -32.72193 | -68.69977 | 8714 ft | 266 kts | 94° |
| 2026-05-07 15:25 | -32.72381 | -68.67812 | 9404 ft | 267 kts | 96° |
| 2026-05-07 15:25 | -32.72618 | -68.65567 | 9791 ft | 282 kts | 97° |
| 2026-05-07 15:25 | -32.72903 | -68.63193 | 10067 ft | 300 kts | 98° |
| 2026-05-07 15:26 | -32.73144 | -68.60705 | 10604 ft | 307 kts | 93° |
| 2026-05-07 15:26 | -32.72844 | -68.58154 | 10954 ft | 322 kts | 70° |
| 2026-05-07 15:26 | -32.71892 | -68.55705 | 11247 ft | 337 kts | 62° |
| 2026-05-07 15:26 | -32.70832 | -68.53150 | 11544 ft | 354 kts | 65° |
| 2026-05-07 15:27 | -32.69880 | -68.50401 | 11845 ft | 371 kts | 70° |
| 2026-05-07 15:27 | -32.69027 | -68.47428 | 12241 ft | 383 kts | 73° |
| 2026-05-07 15:27 | -32.68254 | -68.44398 | 12937 ft | 387 kts | 75° |
| 2026-05-07 15:27 | -32.67505 | -68.41325 | 13609 ft | 392 kts | 75° |
| 2026-05-07 15:28 | -32.66753 | -68.38219 | 14289 ft | 396 kts | 75° |
| 2026-05-07 15:28 | -32.65988 | -68.35080 | 15028 ft | 400 kts | 76° |
| 2026-05-07 15:28 | -32.65208 | -68.31923 | 15762 ft | 402 kts | 75° |
| 2026-05-07 15:28 | -32.64415 | -68.28746 | 16464 ft | 405 kts | 75° |
| 2026-05-07 15:29 | -32.63605 | -68.25513 | 17089 ft | 411 kts | 75° |
| 2026-05-07 15:29 | -32.62786 | -68.22263 | 17776 ft | 413 kts | 75° |
| 2026-05-07 15:29 | -32.61962 | -68.19003 | 18485 ft | 415 kts | 76° |
| 2026-05-07 15:29 | -32.61134 | -68.15731 | 19090 ft | 419 kts | 75° |
| 2026-05-07 15:30 | -32.60297 | -68.12425 | 19694 ft | 422 kts | 75° |
| 2026-05-07 15:30 | -32.59456 | -68.09113 | 20506 ft | 420 kts | 75° |
| 2026-05-07 15:30 | -32.58347 | -68.04747 | 21654 ft | 414 kts | 74° |
| 2026-05-07 15:30 | -32.57523 | -68.01509 | 22400 ft | 411 kts | 74° |
| 2026-05-07 15:31 | -32.56973 | -67.99348 | 22780 ft | 410 kts | 73° |
| 2026-05-07 15:31 | -32.56147 | -67.96104 | 22956 ft | 415 kts | 73° |
| 2026-05-07 15:31 | -32.55314 | -67.92839 | 22975 ft | 413 kts | 73° |
| 2026-05-07 15:31 | -32.54487 | -67.89600 | 22971 ft | 411 kts | 73° |
| 2026-05-07 15:32 | -32.53657 | -67.86357 | 22971 ft | 412 kts | 73° |
| 2026-05-07 15:32 | -32.52825 | -67.83110 | 22962 ft | 413 kts | 73° |
| 2026-05-07 15:32 | -32.51713 | -67.78773 | 22965 ft | 412 kts | 73° |
| 2026-05-07 15:32 | -32.51154 | -67.76608 | 22968 ft | 411 kts | 72° |
| 2026-05-07 15:33 | -32.50245 | -67.73407 | 22966 ft | 413 kts | 70° |
| 2026-05-07 15:33 | -32.49251 | -67.70232 | 22968 ft | 413 kts | 68° |
| 2026-05-07 15:33 | -32.48217 | -67.67066 | 22957 ft | 412 kts | 68° |
| 2026-05-07 15:33 | -32.47179 | -67.63918 | 22964 ft | 413 kts | 68° |
| 2026-05-07 15:34 | -32.46143 | -67.60763 | 22967 ft | 411 kts | 68° |
| 2026-05-07 15:34 | -32.45106 | -67.57587 | 22968 ft | 411 kts | 68° |
| 2026-05-07 15:34 | -32.44086 | -67.54445 | 22960 ft | 411 kts | 68° |
| 2026-05-07 15:34 | -32.43067 | -67.51297 | 22946 ft | 410 kts | 68° |
| 2026-05-07 15:35 | -32.42048 | -67.48143 | 22953 ft | 412 kts | 68° |
| 2026-05-07 15:35 | -32.41030 | -67.44989 | 22958 ft | 411 kts | 68° |
| 2026-05-07 15:35 | -32.40015 | -67.41839 | 22956 ft | 412 kts | 68° |
| 2026-05-07 15:35 | -32.38999 | -67.38682 | 22960 ft | 411 kts | 68° |
| 2026-05-07 15:36 | -32.37646 | -67.34478 | 22953 ft | 409 kts | 67° |
| 2026-05-07 15:36 | -32.36971 | -67.32384 | 22950 ft | 409 kts | 67° |
| 2026-05-07 15:36 | -32.35953 | -67.29231 | 22947 ft | 409 kts | 67° |
| 2026-05-07 15:36 | -32.34941 | -67.26100 | 22947 ft | 408 kts | 66° |
| 2026-05-07 15:37 | -32.33926 | -67.22961 | 22942 ft | 410 kts | 67° |
| 2026-05-07 15:37 | -32.32909 | -67.19815 | 22952 ft | 411 kts | 66° |
| 2026-05-07 15:37 | -32.31897 | -67.16688 | 22944 ft | 407 kts | 66° |
| 2026-05-07 15:37 | -32.30881 | -67.13552 | 22946 ft | 408 kts | 66° |
| 2026-05-07 15:38 | -32.29873 | -67.10450 | 22932 ft | 405 kts | 66° |
| 2026-05-07 15:38 | -32.28864 | -67.07348 | 22937 ft | 406 kts | 66° |
| 2026-05-07 15:38 | -32.27853 | -67.04239 | 22938 ft | 407 kts | 66° |
| 2026-05-07 15:38 | -32.26838 | -67.01128 | 22943 ft | 406 kts | 66° |
| 2026-05-07 15:39 | -32.25828 | -66.98027 | 22930 ft | 406 kts | 66° |
| 2026-05-07 15:39 | -32.24816 | -66.94923 | 22933 ft | 405 kts | 66° |
| 2026-05-07 15:39 | -32.23795 | -66.91798 | 22925 ft | 407 kts | 65° |
| 2026-05-07 15:39 | -32.22780 | -66.88696 | 22930 ft | 406 kts | 66° |
| 2026-05-07 15:40 | -32.21765 | -66.85597 | 22912 ft | 407 kts | 65° |
| 2026-05-07 15:40 | -32.20742 | -66.82475 | 22918 ft | 409 kts | 65° |
| 2026-05-07 15:40 | -32.19714 | -66.79340 | 22920 ft | 410 kts | 65° |
| 2026-05-07 15:40 | -32.18687 | -66.76214 | 22918 ft | 408 kts | 65° |
| 2026-05-07 15:41 | -32.17662 | -66.73089 | 22913 ft | 409 kts | 64° |
| 2026-05-07 15:41 | -32.16631 | -66.69949 | 22911 ft | 410 kts | 64° |
| 2026-05-07 15:41 | -32.15598 | -66.66808 | 22912 ft | 412 kts | 64° |
| 2026-05-07 15:41 | -32.14562 | -66.63668 | 22907 ft | 413 kts | 64° |
| 2026-05-07 15:42 | -32.13523 | -66.60520 | 22908 ft | 412 kts | 64° |
| 2026-05-07 15:42 | -32.12487 | -66.57384 | 22922 ft | 412 kts | 64° |
| 2026-05-07 15:42 | -32.11447 | -66.54236 | 22918 ft | 411 kts | 64° |
| 2026-05-07 15:42 | -32.10413 | -66.51104 | 22905 ft | 413 kts | 64° |
| 2026-05-07 15:43 | -32.09368 | -66.47947 | 22901 ft | 412 kts | 63° |
| 2026-05-07 15:43 | -32.08323 | -66.44797 | 22921 ft | 412 kts | 63° |
| 2026-05-07 15:43 | -32.07284 | -66.41671 | 22911 ft | 412 kts | 63° |
| 2026-05-07 15:43 | -32.06239 | -66.38526 | 22922 ft | 414 kts | 63° |
| 2026-05-07 15:44 | -32.05186 | -66.35363 | 22890 ft | 414 kts | 63° |
| 2026-05-07 15:44 | -32.04137 | -66.32213 | 22906 ft | 413 kts | 62° |
| 2026-05-07 15:44 | -32.03087 | -66.29068 | 22908 ft | 415 kts | 62° |
| 2026-05-07 15:44 | -32.02023 | -66.25887 | 22899 ft | 415 kts | 62° |
| 2026-05-07 15:45 | -32.00970 | -66.22737 | 22892 ft | 415 kts | 61° |
| 2026-05-07 15:45 | -31.99917 | -66.19586 | 22916 ft | 413 kts | 62° |
| 2026-05-07 15:45 | -31.98863 | -66.16440 | 22890 ft | 415 kts | 61° |
| 2026-05-07 15:45 | -31.97807 | -66.13287 | 22894 ft | 416 kts | 61° |
| 2026-05-07 15:46 | -31.95694 | -66.06977 | 22886 ft | 415 kts | 60° |
| 2026-05-07 15:46 | -31.94632 | -66.03809 | 22900 ft | 416 kts | 60° |
| 2026-05-07 15:46 | -31.93577 | -66.00657 | 22890 ft | 414 kts | 60° |
| 2026-05-07 15:47 | -31.92522 | -65.97514 | 22870 ft | 417 kts | 60° |
| 2026-05-07 15:47 | -31.91455 | -65.94345 | 22878 ft | 416 kts | 60° |
| 2026-05-07 15:47 | -31.90393 | -65.91188 | 22876 ft | 415 kts | 60° |
| 2026-05-07 15:47 | -31.89339 | -65.88050 | 22892 ft | 413 kts | 60° |
| 2026-05-07 15:48 | -31.88284 | -65.84918 | 22883 ft | 413 kts | 60° |
| 2026-05-07 15:48 | -31.87216 | -65.81755 | 22882 ft | 413 kts | 60° |
| 2026-05-07 15:48 | -31.86159 | -65.78631 | 22874 ft | 412 kts | 60° |
| 2026-05-07 15:48 | -31.85095 | -65.75495 | 22873 ft | 415 kts | 60° |
| 2026-05-07 15:49 | -31.84033 | -65.72368 | 22877 ft | 411 kts | 60° |
| 2026-05-07 15:49 | -31.82968 | -65.69240 | 22876 ft | 413 kts | 60° |
| 2026-05-07 15:49 | -31.81901 | -65.66109 | 22881 ft | 414 kts | 60° |
| 2026-05-07 15:49 | -31.80838 | -65.62982 | 22879 ft | 412 kts | 60° |
| 2026-05-07 15:50 | -31.79771 | -65.59844 | 22870 ft | 411 kts | 60° |
| 2026-05-07 15:50 | -31.78712 | -65.56737 | 22873 ft | 411 kts | 60° |
| 2026-05-07 15:50 | -31.77652 | -65.53634 | 22881 ft | 413 kts | 60° |
| 2026-05-07 15:50 | -31.76580 | -65.50504 | 22864 ft | 413 kts | 60° |
| 2026-05-07 15:51 | -31.75520 | -65.47397 | 22874 ft | 408 kts | 60° |
| 2026-05-07 15:51 | -31.74465 | -65.44301 | 22874 ft | 411 kts | 60° |
| 2026-05-07 15:51 | -31.73403 | -65.41197 | 22870 ft | 413 kts | 60° |
| 2026-05-07 15:51 | -31.72327 | -65.38055 | 22872 ft | 411 kts | 60° |
| 2026-05-07 15:52 | -31.71262 | -65.34943 | 22889 ft | 410 kts | 60° |
| 2026-05-07 15:52 | -31.70211 | -65.31869 | 22886 ft | 408 kts | 59° |
| 2026-05-07 15:52 | -31.69157 | -65.28793 | 22887 ft | 408 kts | 59° |
| 2026-05-07 15:52 | -31.68090 | -65.25690 | 22878 ft | 412 kts | 60° |
| 2026-05-07 15:53 | -31.66621 | -65.21688 | 22744 ft | 390 kts | 55° |
| 2026-05-07 15:53 | -31.65751 | -65.19882 | 22563 ft | 378 kts | 48° |
| 2026-05-07 15:53 | -31.64173 | -65.17482 | 22195 ft | 364 kts | 40° |
| 2026-05-07 15:53 | -31.62454 | -65.15349 | 21762 ft | 358 kts | 37° |
| 2026-05-07 15:54 | -31.60687 | -65.13319 | 21360 ft | 354 kts | 35° |
| 2026-05-07 15:54 | -31.58925 | -65.11342 | 20938 ft | 352 kts | 35° |
| 2026-05-07 15:54 | -31.57160 | -65.09363 | 20504 ft | 352 kts | 35° |
| 2026-05-07 15:54 | -31.55382 | -65.07363 | 20071 ft | 358 kts | 36° |
| 2026-05-07 15:55 | -31.53581 | -65.05327 | 19619 ft | 361 kts | 36° |
| 2026-05-07 15:55 | -31.51778 | -65.03274 | 19175 ft | 359 kts | 37° |
| 2026-05-07 15:55 | -31.50002 | -65.01241 | 18737 ft | 357 kts | 37° |
| 2026-05-07 15:55 | -31.48231 | -64.99217 | 18301 ft | 356 kts | 36° |
| 2026-05-07 15:56 | -31.46471 | -64.97206 | 17854 ft | 354 kts | 36° |
| 2026-05-07 15:56 | -31.44714 | -64.95198 | 17424 ft | 353 kts | 37° |
| 2026-05-07 15:56 | -31.42963 | -64.93198 | 16989 ft | 352 kts | 37° |
| 2026-05-07 15:56 | -31.41219 | -64.91207 | 16552 ft | 351 kts | 38° |
| 2026-05-07 15:57 | -31.39464 | -64.89203 | 16123 ft | 350 kts | 38° |
| 2026-05-07 15:57 | -31.37727 | -64.87221 | 15693 ft | 349 kts | 38° |
| 2026-05-07 15:57 | -31.35993 | -64.85242 | 15275 ft | 349 kts | 39° |
| 2026-05-07 15:57 | -31.34261 | -64.83266 | 14850 ft | 348 kts | 39° |
| 2026-05-07 15:58 | -31.32534 | -64.81295 | 14420 ft | 348 kts | 39° |
| 2026-05-07 15:58 | -31.30806 | -64.79326 | 14000 ft | 347 kts | 39° |
| 2026-05-07 15:58 | -31.29080 | -64.77363 | 13573 ft | 347 kts | 40° |
| 2026-05-07 15:58 | -31.27349 | -64.75391 | 13146 ft | 346 kts | 41° |
| 2026-05-07 15:59 | -31.25632 | -64.73435 | 12720 ft | 345 kts | 41° |
| 2026-05-07 15:59 | -31.23920 | -64.71483 | 12280 ft | 344 kts | 41° |
| 2026-05-07 15:59 | -31.22211 | -64.69536 | 11847 ft | 344 kts | 41° |
| 2026-05-07 15:59 | -31.20510 | -64.67593 | 11408 ft | 343 kts | 43° |
| 2026-05-07 16:00 | -31.18978 | -64.65470 | 10959 ft | 344 kts | 56° |
| 2026-05-07 16:00 | -31.17875 | -64.63018 | 10532 ft | 342 kts | 67° |
| 2026-05-07 16:00 | -31.17023 | -64.60427 | 10144 ft | 338 kts | 72° |
| 2026-05-07 16:00 | -31.16261 | -64.57880 | 9972 ft | 327 kts | 72° |
| 2026-05-07 16:01 | -31.15517 | -64.55406 | 9684 ft | 321 kts | 72° |
| 2026-05-07 16:01 | -31.14755 | -64.52991 | 9287 ft | 314 kts | 71° |
| 2026-05-07 16:01 | -31.13987 | -64.50645 | 8932 ft | 307 kts | 71° |
| 2026-05-07 16:01 | -31.13221 | -64.48357 | 8582 ft | 300 kts | 71° |
| 2026-05-07 16:02 | -31.12467 | -64.46120 | 8238 ft | 294 kts | 71° |
| 2026-05-07 16:02 | -31.11727 | -64.43915 | 7906 ft | 288 kts | 72° |
| 2026-05-07 16:02 | -31.11004 | -64.41764 | 7588 ft | 286 kts | 72° |
| 2026-05-07 16:02 | -31.10273 | -64.39591 | 7257 ft | 290 kts | 72° |
| 2026-05-07 16:03 | -31.09532 | -64.37407 | 6917 ft | 289 kts | 72° |
| 2026-05-07 16:03 | -31.08807 | -64.35255 | 6645 ft | 281 kts | 73° |
| 2026-05-07 16:03 | -31.08287 | -64.33139 | 6489 ft | 266 kts | 85° |
| 2026-05-07 16:03 | -31.08205 | -64.31040 | 6223 ft | 255 kts | 98° |
| 2026-05-07 16:04 | -31.08327 | -64.29029 | 6134 ft | 241 kts | 101° |
| 2026-05-07 16:04 | -31.08439 | -64.27139 | 6039 ft | 230 kts | 100° |
| 2026-05-07 16:04 | -31.08512 | -64.25307 | 5873 ft | 223 kts | 99° |
| 2026-05-07 16:04 | -31.08658 | -64.23554 | 5675 ft | 212 kts | 110° |
| 2026-05-07 16:05 | -31.09258 | -64.22119 | 5509 ft | 187 kts | 142° |
| 2026-05-07 16:05 | -31.10306 | -64.21371 | 5287 ft | 174 kts | 164° |
| 2026-05-07 16:05 | -31.11461 | -64.21068 | 5076 ft | 165 kts | 179° |
| 2026-05-07 16:05 | -31.12577 | -64.21099 | 4970 ft | 156 kts | 182° |
| 2026-05-07 16:06 | -31.13682 | -64.21106 | 4733 ft | 159 kts | 181° |
| 2026-05-07 16:06 | -31.14773 | -64.21090 | 4509 ft | 155 kts | 181° |
| 2026-05-07 16:06 | -31.15839 | -64.21077 | 4300 ft | 151 kts | 181° |
| 2026-05-07 16:06 | -31.16861 | -64.21062 | 4093 ft | 147 kts | 181° |
| 2026-05-07 16:07 | -31.17891 | -64.21044 | 3903 ft | 148 kts | 180° |
| 2026-05-07 16:07 | -31.18909 | -64.21025 | 3698 ft | 141 kts | 180° |
| 2026-05-07 16:07 | -31.19849 | -64.21013 | 3490 ft | 130 kts | 179° |
| 2026-05-07 16:07 | -31.20748 | -64.20985 | 3337 ft | 127 kts | 180° |
| 2026-05-07 16:08 | -31.21637 | -64.20967 | 3173 ft | 129 kts | 180° |
| 2026-05-07 16:08 | -31.22539 | -64.20959 | 2980 ft | 130 kts | 180° |
| 2026-05-07 16:08 | -31.23467 | -64.20949 | 2835 ft | 133 kts | 179° |
| 2026-05-07 16:08 | -31.24405 | -64.20936 | 2633 ft | 137 kts | 180° |
| 2026-05-07 16:09 | -31.25365 | -64.20950 | 2377 ft | 139 kts | 183° |
| 2026-05-07 16:09 | -31.26355 | -64.20921 | 2144 ft | 146 kts | 179° |
| 2026-05-07 16:09 | -31.27379 | -64.20894 | 1986 ft | 148 kts | 179° |
| 2026-05-07 16:09 | -31.28398 | -64.20872 | 1851 ft | 146 kts | 179° |
| 2026-05-07 16:10 | -31.29445 | -64.20845 | 1649 ft | 154 kts | 181° |
| 2026-05-07 16:10 | -31.30505 | -64.20846 | 1579 ft | 147 kts | 180° |
| 2026-05-07 16:10 | -31.31500 | -64.20803 | 2165 ft | 134 kts | 176° |
| 2026-05-07 16:10 | -31.32472 | -64.20736 | 2574 ft | 153 kts | 179° |
| 2026-05-07 16:11 | -31.33589 | -64.20726 | 2997 ft | 173 kts | 178° |
| 2026-05-07 16:11 | -31.34819 | -64.20388 | 3471 ft | 197 kts | 156° |
| 2026-05-07 16:11 | -31.35877 | -64.19320 | 4230 ft | 215 kts | 135° |
| 2026-05-07 16:11 | -31.36799 | -64.17946 | 5077 ft | 220 kts | 136° |
| 2026-05-07 16:12 | -31.37811 | -64.16543 | 5102 ft | 230 kts | 137° |
| 2026-05-07 16:12 | -31.38839 | -64.15131 | 4885 ft | 225 kts | 137° |
| 2026-05-07 16:12 | -31.39812 | -64.13773 | 4974 ft | 216 kts | 136° |
| 2026-05-07 16:12 | -31.40596 | -64.12190 | 5330 ft | 234 kts | 114° |
| 2026-05-07 16:13 | -31.40690 | -64.10232 | 5710 ft | 252 kts | 91° |
| 2026-05-07 16:13 | -31.40452 | -64.08174 | 5854 ft | 255 kts | 89° |
| 2026-05-07 16:13 | -31.40174 | -64.06113 | 5856 ft | 257 kts | 89° |
| 2026-05-07 16:13 | -31.39896 | -64.04068 | 5855 ft | 254 kts | 89° |
| 2026-05-07 16:14 | -31.39625 | -64.02032 | 5856 ft | 254 kts | 88° |
| 2026-05-07 16:14 | -31.39337 | -63.99993 | 5852 ft | 255 kts | 88° |
| 2026-05-07 16:14 | -31.39091 | -63.97923 | 5854 ft | 255 kts | 92° |
| 2026-05-07 16:14 | -31.38999 | -63.95883 | 5851 ft | 250 kts | 98° |
| 2026-05-07 16:15 | -31.39003 | -63.93865 | 5850 ft | 250 kts | 99° |
| 2026-05-07 16:15 | -31.39030 | -63.91826 | 5849 ft | 250 kts | 99° |
| 2026-05-07 16:15 | -31.39036 | -63.89853 | 5847 ft | 237 kts | 98° |
| 2026-05-07 16:15 | -31.39030 | -63.87974 | 5850 ft | 230 kts | 99° |
| 2026-05-07 16:16 | -31.39034 | -63.86113 | 5847 ft | 230 kts | 100° |
| 2026-05-07 16:16 | -31.39043 | -63.84234 | 5846 ft | 229 kts | 100° |
| 2026-05-07 16:16 | -31.39048 | -63.82381 | 5851 ft | 229 kts | 99° |
| 2026-05-07 16:16 | -31.39055 | -63.80513 | 5856 ft | 235 kts | 99° |
| 2026-05-07 16:17 | -31.39062 | -63.78578 | 5845 ft | 238 kts | 99° |
| 2026-05-07 16:17 | -31.39061 | -63.76656 | 5842 ft | 238 kts | 99° |
| 2026-05-07 16:17 | -31.39059 | -63.74722 | 5835 ft | 239 kts | 99° |
| 2026-05-07 16:17 | -31.39053 | -63.72778 | 5843 ft | 240 kts | 98° |
| 2026-05-07 16:18 | -31.39025 | -63.70815 | 5842 ft | 239 kts | 97° |
| 2026-05-07 16:18 | -31.38998 | -63.68883 | 5838 ft | 237 kts | 99° |
| 2026-05-07 16:18 | -31.38999 | -63.66945 | 5839 ft | 240 kts | 99° |
| 2026-05-07 16:18 | -31.39003 | -63.65005 | 5839 ft | 238 kts | 99° |
| 2026-05-07 16:19 | -31.39002 | -63.63068 | 5843 ft | 240 kts | 98° |
| 2026-05-07 16:19 | -31.38776 | -63.61112 | 5838 ft | 249 kts | 77° |
| 2026-05-07 16:19 | -31.37833 | -63.59353 | 5845 ft | 264 kts | 52° |
| 2026-05-07 16:19 | -31.36417 | -63.57946 | 5828 ft | 269 kts | 35° |
| 2026-05-07 16:20 | -31.34680 | -63.57173 | 5822 ft | 272 kts | 5° |
| 2026-05-07 16:20 | -31.32823 | -63.57375 | 5822 ft | 263 kts | 337° |
| 2026-05-07 16:20 | -31.31176 | -63.58272 | 5826 ft | 261 kts | 321° |
| 2026-05-07 16:20 | -31.29839 | -63.59598 | 5820 ft | 245 kts | 298° |
| 2026-05-07 16:21 | -31.29049 | -63.61296 | 5838 ft | 236 kts | 283° |
| 2026-05-07 16:21 | -31.28452 | -63.63055 | 5843 ft | 232 kts | 282° |
| 2026-05-07 16:21 | -31.27836 | -63.64820 | 5842 ft | 236 kts | 284° |
| 2026-05-07 16:21 | -31.27183 | -63.66566 | 5829 ft | 233 kts | 285° |
| 2026-05-07 16:22 | -31.26520 | -63.68294 | 5835 ft | 234 kts | 285° |
| 2026-05-07 16:22 | -31.25821 | -63.70004 | 5831 ft | 235 kts | 287° |
| 2026-05-07 16:22 | -31.25068 | -63.71703 | 5832 ft | 239 kts | 289° |
| 2026-05-07 16:22 | -31.24288 | -63.73409 | 5830 ft | 236 kts | 288° |
| 2026-05-07 16:23 | -31.23519 | -63.75116 | 5828 ft | 236 kts | 288° |
| 2026-05-07 16:23 | -31.22759 | -63.76824 | 5830 ft | 235 kts | 288° |
| 2026-05-07 16:23 | -31.22002 | -63.78526 | 5836 ft | 239 kts | 288° |
| 2026-05-07 16:23 | -31.21437 | -63.79799 | 5834 ft | 235 kts | 289° |
| 2026-05-07 16:24 | -31.21325 | -63.80048 | 5834 ft | 234 kts | 289° |
| 2026-05-07 16:24 | -31.21095 | -63.80572 | 5822 ft | 234 kts | 294° |
| 2026-05-07 16:24 | -31.20332 | -63.82260 | 5657 ft | 234 kts | 294° |
| 2026-05-07 16:24 | -31.19581 | -63.83923 | 5637 ft | 233 kts | 293° |
| 2026-05-07 16:25 | -31.18825 | -63.85613 | 5632 ft | 236 kts | 294° |
| 2026-05-07 16:25 | -31.18068 | -63.87300 | 5630 ft | 235 kts | 294° |
| 2026-05-07 16:25 | -31.17313 | -63.88974 | 5669 ft | 233 kts | 293° |
| 2026-05-07 16:25 | -31.16557 | -63.90649 | 5733 ft | 235 kts | 292° |
| 2026-05-07 16:26 | -31.15799 | -63.92331 | 5801 ft | 235 kts | 291° |
| 2026-05-07 16:26 | -31.15041 | -63.94013 | 5865 ft | 233 kts | 289° |
| 2026-05-07 16:26 | -31.14287 | -63.95686 | 5899 ft | 235 kts | 289° |
| 2026-05-07 16:26 | -31.13521 | -63.97386 | 5898 ft | 234 kts | 289° |
| 2026-05-07 16:27 | -31.12764 | -63.99060 | 5906 ft | 235 kts | 290° |
| 2026-05-07 16:27 | -31.12003 | -64.00743 | 5905 ft | 234 kts | 290° |
| 2026-05-07 16:27 | -31.11243 | -64.02424 | 5907 ft | 236 kts | 290° |
| 2026-05-07 16:27 | -31.10480 | -64.04112 | 5906 ft | 236 kts | 289° |
| 2026-05-07 16:28 | -31.09717 | -64.05804 | 5907 ft | 234 kts | 290° |
| 2026-05-07 16:28 | -31.08959 | -64.07473 | 5915 ft | 234 kts | 290° |
| 2026-05-07 16:28 | -31.08247 | -64.09189 | 5908 ft | 232 kts | 282° |
| 2026-05-07 16:28 | -31.07957 | -64.10981 | 5728 ft | 221 kts | 261° |
| 2026-05-07 16:29 | -31.08092 | -64.12731 | 5492 ft | 216 kts | 256° |
| 2026-05-07 16:29 | -31.08250 | -64.14455 | 5315 ft | 212 kts | 258° |
| 2026-05-07 16:29 | -31.08358 | -64.16148 | 5146 ft | 208 kts | 259° |
| 2026-05-07 16:29 | -31.08439 | -64.17806 | 5000 ft | 202 kts | 258° |
| 2026-05-07 16:30 | -31.08675 | -64.19341 | 4974 ft | 182 kts | 240° |
| 2026-05-07 16:30 | -31.09405 | -64.20438 | 4981 ft | 170 kts | 214° |
| 2026-05-07 16:30 | -31.10417 | -64.21121 | 4975 ft | 166 kts | 201° |
| 2026-05-07 16:30 | -31.11539 | -64.21394 | 4974 ft | 167 kts | 181° |
| 2026-05-07 16:31 | -31.12643 | -64.21293 | 4979 ft | 151 kts | 179° |
| 2026-05-07 16:31 | -31.13667 | -64.21223 | 4899 ft | 150 kts | 180° |
| 2026-05-07 16:31 | -31.14736 | -64.21159 | 4537 ft | 156 kts | 179° |
| 2026-05-07 16:31 | -31.15802 | -64.21110 | 4286 ft | 149 kts | 180° |
| 2026-05-07 16:32 | -31.16798 | -64.21084 | 4092 ft | 138 kts | 181° |
| 2026-05-07 16:32 | -31.17749 | -64.21056 | 3915 ft | 137 kts | 180° |
| 2026-05-07 16:32 | -31.18704 | -64.21033 | 3725 ft | 136 kts | 181° |
| 2026-05-07 16:32 | -31.19658 | -64.21022 | 3551 ft | 137 kts | 181° |
| 2026-05-07 16:33 | -31.20606 | -64.21001 | 3354 ft | 136 kts | 181° |
| 2026-05-07 16:33 | -31.21559 | -64.20987 | 3172 ft | 140 kts | 180° |
| 2026-05-07 16:33 | -31.22527 | -64.20968 | 2978 ft | 139 kts | 180° |
| 2026-05-07 16:33 | -31.23511 | -64.20948 | 2796 ft | 141 kts | 180° |
| 2026-05-07 16:34 | -31.24495 | -64.20934 | 2609 ft | 143 kts | 180° |
| 2026-05-07 16:34 | -31.25496 | -64.20924 | 2442 ft | 144 kts | 181° |
| 2026-05-07 16:34 | -31.26511 | -64.20914 | 2232 ft | 148 kts | 180° |
| 2026-05-07 16:34 | -31.27538 | -64.20876 | 2078 ft | 146 kts | 180° |
| 2026-05-07 16:35 | -31.28565 | -64.20870 | 1874 ft | 148 kts | 180° |
| 2026-05-07 16:35 | -31.29595 | -64.20854 | 1658 ft | 151 kts | 180° |
| 2026-05-07 16:35 | -31.30630 | -64.20832 | 1573 ft | 138 kts | 181° |
| 2026-05-07 16:35 | -31.31372 | -64.20830 | 1552 ft | 75 kts | 178° |
| 2026-05-07 16:36 | -31.31652 | -64.20832 | 1546 ft | 11 kts | 203° |
| 2026-05-07 16:36 | -31.31714 | -64.20883 | 1546 ft | 11 kts | 216° |
| 2026-05-07 16:36 | -31.31773 | -64.20929 | 1546 ft | 10 kts | 218° |
| 2026-05-07 16:36 | -31.31792 | -64.20993 | 1547 ft | 8 kts | 281° |
| 2026-05-07 16:37 | -31.31779 | -64.21034 | 1548 ft | 3 kts | 302° |
| 2026-05-07 16:37 | -31.31772 | -64.21046 | 1549 ft | 1 kts | 309° |
| 2026-05-07 16:37 | -31.31769 | -64.21049 | 1549 ft | 1 kts | 311° |
| 2026-05-07 16:37 | -31.31755 | -64.21065 | 1550 ft | 3 kts | 317° |
| 2026-05-07 16:38 | -31.31739 | -64.21081 | 1551 ft | 3 kts | 320° |
| 2026-05-07 16:38 | -31.31716 | -64.21094 | 1552 ft | 4 kts | 349° |
| 2026-05-07 16:38 | -31.31683 | -64.21096 | 1552 ft | 5 kts | 358° |
| 2026-05-07 16:38 | -31.31650 | -64.21097 | 1553 ft | 5 kts | 358° |
| 2026-05-07 16:39 | -31.31622 | -64.21107 | 1554 ft | 4 kts | 303° |
| 2026-05-07 16:39 | -31.31618 | -64.21131 | 1555 ft | 2 kts | 275° |
| 2026-05-07 16:39 | -31.31618 | -64.21148 | 1556 ft | 2 kts | 272° |
| 2026-05-07 16:39 | -31.31618 | -64.21160 | 1556 ft | 1 kts | 270° |
| 2026-05-07 16:40 | -31.31618 | -64.21169 | 1557 ft | 0 kts | 269° |